sensor_id;sensor_type;location;lat;lon;timestamp;temperature;humidity
54824;DHT22;40724;53.196;5.980;2023-04-23T09:45:12;10.40;99.90
54824;DHT22;40724;53.196;5.980;2023-04-23T09:47:40;13.80;99.90
54824;DHT22;40724;53.196;5.980;2023-04-23T09:50:07;13.80;99.90
54824;DHT22;40724;53.196;5.980;2023-04-23T09:52:38;13.90;99.90
54824;DHT22;40724;53.196;5.980;2023-04-23T09:55:04;14.00;99.90
54824;DHT22;40724;53.196;5.980;2023-04-23T10:07:43;14.10;99.90
54824;DHT22;40724;53.196;5.980;2023-04-23T10:10:11;14.50;99.90
54824;DHT22;40724;53.196;5.980;2023-04-23T10:12:37;14.60;99.90
54824;DHT22;40724;53.196;5.980;2023-04-23T10:15:04;14.70;99.90
54824;DHT22;40724;53.196;5.980;2023-04-23T10:17:30;14.80;99.90
54824;DHT22;40724;53.196;5.980;2023-04-23T10:19:58;14.80;99.90
54824;DHT22;40724;53.196;5.980;2023-04-23T10:22:28;14.80;99.90
54824;DHT22;40724;53.196;5.980;2023-04-23T10:24:55;14.90;99.90
54824;DHT22;40724;53.196;5.980;2023-04-23T10:27:26;15.00;99.90
54824;DHT22;40724;53.196;5.980;2023-04-23T10:29:53;15.00;99.90
54824;DHT22;40724;53.196;5.980;2023-04-23T10:32:20;15.00;99.90
54824;DHT22;40724;53.196;5.980;2023-04-23T10:34:47;15.10;99.90
54824;DHT22;40724;53.196;5.980;2023-04-23T10:37:13;15.10;99.90
54824;DHT22;40724;53.196;5.980;2023-04-23T10:39:43;15.20;99.90
54824;DHT22;40724;53.196;5.980;2023-04-23T16:43:46;15.20;99.90
54824;DHT22;40724;53.196;5.980;2023-04-23T16:46:13;14.20;99.90
54824;DHT22;40724;53.196;5.980;2023-04-23T16:48:42;14.20;99.90
54824;DHT22;40724;53.196;5.980;2023-04-23T16:51:08;14.10;99.90
54824;DHT22;40724;53.196;5.980;2023-04-23T16:53:34;14.10;99.90
54824;DHT22;40724;53.196;5.980;2023-04-23T16:56:00;13.90;99.90
54824;DHT22;40724;53.196;5.980;2023-04-23T16:58:26;13.90;99.90
54824;DHT22;40724;53.196;5.980;2023-04-23T17:00:52;13.70;99.90
54824;DHT22;40724;53.196;5.980;2023-04-23T17:03:18;13.60;99.90
54824;DHT22;40724;53.196;5.980;2023-04-23T17:05:47;13.50;99.90
54824;DHT22;40724;53.196;5.980;2023-04-23T17:08:15;13.50;99.90
54824;DHT22;40724;53.196;5.980;2023-04-23T17:10:42;13.40;99.90
54824;DHT22;40724;53.196;5.980;2023-04-23T17:13:08;13.40;99.90
54824;DHT22;40724;53.196;5.980;2023-04-23T17:15:34;13.30;99.90
54824;DHT22;40724;53.196;5.980;2023-04-23T17:18:00;13.30;99.90
54824;DHT22;40724;53.196;5.980;2023-04-23T17:20:25;13.20;99.90
54824;DHT22;40724;53.196;5.980;2023-04-23T17:22:51;13.20;99.90
54824;DHT22;40724;53.196;5.980;2023-04-23T17:25:17;13.20;99.90
54824;DHT22;40724;53.196;5.980;2023-04-23T17:27:43;13.10;99.90
54824;DHT22;40724;53.196;5.980;2023-04-23T17:30:09;13.10;99.90
54824;DHT22;40724;53.196;5.980;2023-04-23T17:32:35;13.10;99.90
54824;DHT22;40724;53.196;5.980;2023-04-23T17:35:01;13.10;99.90
54824;DHT22;40724;53.196;5.980;2023-04-23T17:37:27;13.10;99.90
54824;DHT22;40724;53.196;5.980;2023-04-23T17:39:52;13.00;99.90
54824;DHT22;40724;53.196;5.980;2023-04-23T17:42:18;13.00;99.90
54824;DHT22;40724;53.196;5.980;2023-04-23T17:44:44;12.90;99.90
54824;DHT22;40724;53.196;5.980;2023-04-23T17:47:10;12.90;99.90
54824;DHT22;40724;53.196;5.980;2023-04-23T17:49:37;12.90;99.90
54824;DHT22;40724;53.196;5.980;2023-04-23T17:52:03;12.90;99.90
54824;DHT22;40724;53.196;5.980;2023-04-23T17:54:30;12.80;99.90
54824;DHT22;40724;53.196;5.980;2023-04-23T17:56:56;12.90;99.90
54824;DHT22;40724;53.196;5.980;2023-04-23T17:59:22;12.90;99.90
54824;DHT22;40724;53.196;5.980;2023-04-23T18:01:48;12.90;99.90
54824;DHT22;40724;53.196;5.980;2023-04-23T18:04:14;12.90;99.90
54824;DHT22;40724;53.196;5.980;2023-04-23T18:06:39;12.80;99.90
54824;DHT22;40724;53.196;5.980;2023-04-23T18:09:05;12.90;99.90
54824;DHT22;40724;53.196;5.980;2023-04-23T18:11:31;12.80;99.90
54824;DHT22;40724;53.196;5.980;2023-04-23T18:13:57;12.80;99.90
54824;DHT22;40724;53.196;5.980;2023-04-23T18:16:23;12.80;99.90
54824;DHT22;40724;53.196;5.980;2023-04-23T18:18:48;12.80;99.90
54824;DHT22;40724;53.196;5.980;2023-04-23T18:21:14;12.80;99.90
54824;DHT22;40724;53.196;5.980;2023-04-23T18:23:42;12.80;99.90
54824;DHT22;40724;53.196;5.980;2023-04-23T18:26:08;12.80;99.90
54824;DHT22;40724;53.196;5.980;2023-04-23T18:28:34;12.80;99.90
54824;DHT22;40724;53.196;5.980;2023-04-23T18:31:02;12.80;99.90
54824;DHT22;40724;53.196;5.980;2023-04-23T18:36:04;12.80;99.90
54824;DHT22;40724;53.196;5.980;2023-04-23T18:38:41;12.80;99.90
54824;DHT22;40724;53.196;5.980;2023-04-23T18:41:07;12.70;99.90
54824;DHT22;40724;53.196;5.980;2023-04-23T18:43:33;12.70;99.90
54824;DHT22;40724;53.196;5.980;2023-04-23T18:46:00;12.70;99.90
54824;DHT22;40724;53.196;5.980;2023-04-23T18:51:03;12.70;99.90
54824;DHT22;40724;53.196;5.980;2023-04-23T18:53:29;12.60;99.90
54824;DHT22;40724;53.196;5.980;2023-04-23T18:55:55;12.60;99.90
54824;DHT22;40724;53.196;5.980;2023-04-23T18:58:21;12.60;99.90
54824;DHT22;40724;53.196;5.980;2023-04-23T19:00:46;12.60;99.90
54824;DHT22;40724;53.196;5.980;2023-04-23T19:03:13;12.60;99.90
54824;DHT22;40724;53.196;5.980;2023-04-23T19:05:39;12.60;99.90
54824;DHT22;40724;53.196;5.980;2023-04-23T19:08:06;12.60;99.90
54824;DHT22;40724;53.196;5.980;2023-04-23T19:10:31;12.60;99.90
